首页
METAR-TAF:

METAR-TAF

机场 :

莫比尔, 阿拉巴马州, 美国

纬度: 30-36-50N, 经度: 088-03-48W, 海拔: 7米

当前天气观测

该预报发布于42分钟前的17:53 UTC
风速6节,风向南转南东
温度 31°C
湿度 52%
气压 1015 hPa
能見度: 16.1公里
散云层高于3500英尺

METAR: KBFM 041753Z 15006KT 10SM SCT035 31/20 A2997 RMK AO2 SLP147 T03060200 10306 20244 58013

时间: 13:35 (18:35 UTC)

预报

该预报发布于1小时和11分钟前的17:24 UTC
预报有效从04日的 18点(UTC)到 05日的 18点(UTC)
风速6节,风向东南
能見度: 10公里
散云层高于3000英尺
附近有阵雨
短暂存在
从 04日的 19点(UTC)到 04日的 23点(UTC)
能見度: 6.4公里
多云层高于3000英尺, 积雨云.
雷暴, 雨
从 05日的 0100点(UTC)
风速4节,风向东南
能見度: 10公里
散云层高于7000英尺
散云层高于15000英尺
从 05日的 0500点(UTC)
风速3节,风向多变
能見度: 10公里
散云层高于25000英尺

TAF: KBFM 041724Z 0418/0518 13006KT P6SM VCSH SCT030 TEMPO 0419/0423 4SM TSRA BKN030CB FM050100 13004KT P6SM SCT070 SCT150 FM050500 VRB03KT P6SM SCT250

超过4000个机场的气象观测和天气预报(METAR&TAF报告)。

可查询的气象台以黄色和红色小点在地图上表示。

将鼠标移到小点上方,可查看气象台名称。

然后点击查看天气观测和预报。

如需切换地图:点击带黑十字的绿色按钮放大地图;点击带横线的绿色按钮缩小地图;或者点击绿色箭头查看邻近地区的地图。


METAR-TAF: